釧路 の空港の天気 - METARとTAF

釧路空港 ( RJCK / KUH ) - 北海道釧路市
飛行場実況気象(Metar)
観測時間07/07 20:38 JST (07/07 11:38 UTC)
風向・風速南南西 3m/s
視程3100m
天気現象散在した霧 弱いしゅう雨 もや
少しの雲 雲底高度 30m
全天の4割程度の雲 雲底高度 120m
全天の8割程度の雲 雲底高度 150m
気温15℃
湿度100%
気圧1005hPa
METARRJCK 071138Z 21005KT 3100 R17/P2000N BCFG -SHRA BR FEW001 SCT004 BKN005 15/15 Q1005 RMK 1ST001 4ST004 6ST005 A2970
過去の天気等 Google飛行場航空写真 Wunderground天気予報

過去48時間のMETAR

飛行場予報(TAF)
発表時間: 7/07 20:14 JST (7/07 11:14 UTC)
予報対象時間: 7日21時 JST ~ 9日3時 JST
風向・風速南西 3m/s
視程3000m
天気現象もや
少しの雲 雲底高度 60m
全天の8割程度の雲 雲底高度 150m
7日22時 JST ~ 7日24時 JST に徐々に
風向・風速北西 3m/s
8日0時 JST ~ 8日9時 JST に一時的に
視程700m
天気現象弱いしゅう雨 霧
全天を覆う雲 鉛直視程 30m
8日9時 JST ~ 8日12時 JST に徐々に
風向・風速南 4m/s
8日18時 JST ~ 9日3時 JST に一時的に
視程700m
天気現象
全天を覆う雲 鉛直視程 30m
TAF RJCK 071114Z 0712/0818 23005KT 3000 BR FEW002 BKN005
BECMG 0713/0715 31005KT
TEMPO 0715/0800 0700 -SHRA FG VV001
BECMG 0800/0803 19007KT
TEMPO 0809/0818 0700 FG VV001
日本の空港のMETAR・TAFへのリンク

RJTT 東京国際空港
RJAA 新東京国際空港
RJBB 関西国際空港
RJOO 大阪空港
RJGG 中部国際空港
RJCC 新千歳空港
RJFF 福岡空港
ROAH 那覇空港


RJEC 旭川空港
RJCH 函館空港
RJCK 釧路空港
RJCM 女満別空港
RJCB 帯広空港
RJSA 青森空港
RJSS 仙台空港
RJSK 秋田空港
RJSF 福島空港
RJAH 茨城空港
RJSN 新潟空港
RJNT 富山空港
RJNK 小松飛行場
RJNS 静岡空港
RJOH 美保飛行場
RJOC 出雲空港
RJOB 岡山空港
RJOA 広島空港
RJOI 岩国飛行場
RJOT 高松空港
RJOM 松山空港
RJOK 高知空港
RJFR 北九州空港
RJFT 熊本空港
RJFU 長崎空港
RJFS 佐賀空港
RJFO 大分空港
RJFM 宮崎空港
RJFK 鹿児島空港
ROIG 石垣島空港
RJTY 横田飛行場
ROTM 普天間飛行場
RODN 嘉手納飛行場